Time;durP1;ratioP1;P1;durP2;ratioP2;P2;SDS_P1;SDS_P2;PMS_P1;PMS_P2;Temp;Humidity;BMP_temperature;BMP_pressure;BME280_temperature;BME280_humidity;BME280_pressure;Samples;Min_cycle;Max_cycle;Signal;HPM_P1;HPM_P2
2022/07/01 00:00:09;;;;;;;0.05;0.05;;;;;;;17.25;69.00;101541.84;5043761;28;20064;-79
2022/07/01 00:02:36;;;;;;;0.15;0.15;;;;;;;17.21;69.14;101540.19;5044404;28;20167;-79
2022/07/01 00:05:02;;;;;;;0.75;0.75;;;;;;;17.17;69.31;101538.56;5042001;28;20106;-79
2022/07/01 00:07:28;;;;;;;0.10;0.10;;;;;;;17.10;69.59;101544.16;5040965;28;20120;-79
2022/07/01 00:09:54;;;;;;;4.60;0.95;;;;;;;17.06;69.06;101547.88;5043534;28;20558;-79
2022/07/01 00:12:20;;;;;;;0.13;0.13;;;;;;;16.99;69.42;101551.69;5041339;28;20040;-79
2022/07/01 00:14:46;;;;;;;0.98;0.98;;;;;;;16.93;69.42;101557.25;5045770;28;20029;-78
2022/07/01 00:17:12;;;;;;;0.10;0.10;;;;;;;16.93;69.87;101551.91;5045043;28;20056;-80
2022/07/01 00:19:38;;;;;;;0.00;0.00;;;;;;;16.95;69.49;101556.28;5046086;28;20482;-79
2022/07/01 00:22:05;;;;;;;0.73;0.73;;;;;;;16.88;69.99;101551.16;5044606;28;20049;-78
2022/07/01 00:24:31;;;;;;;0.25;0.25;;;;;;;16.92;69.92;101560.88;5044246;28;20127;-78
2022/07/01 00:26:57;;;;;;;0.80;0.80;;;;;;;16.88;69.77;101559.19;5043594;28;20120;-78
2022/07/01 00:29:23;;;;;;;0.52;0.43;;;;;;;16.90;70.12;101562.69;5044626;28;20037;-78
2022/07/01 00:31:49;;;;;;;0.10;0.10;;;;;;;16.95;70.09;101576.84;5046068;28;20174;-78
2022/07/01 00:34:15;;;;;;;0.50;0.50;;;;;;;16.91;69.54;101585.84;5042212;28;20044;-79
2022/07/01 00:36:41;;;;;;;1.75;0.60;;;;;;;16.88;70.17;101572.59;5044496;28;20036;-79
2022/07/01 00:39:08;;;;;;;0.57;0.57;;;;;;;16.78;70.49;101569.34;5044094;28;20029;-79
2022/07/01 00:41:34;;;;;;;1.45;1.20;;;;;;;16.85;70.25;101575.34;5045395;28;20056;-79
2022/07/01 00:44:00;;;;;;;0.40;0.40;;;;;;;16.82;69.97;101570.97;5045402;28;20025;-79
2022/07/01 00:46:26;;;;;;;0.68;0.68;;;;;;;16.84;70.31;101562.91;5045244;28;20029;-78
2022/07/01 00:48:55;;;;;;;0.47;0.47;;;;;;;16.86;70.41;101571.75;5044164;28;20399;-79
2022/07/01 00:51:22;;;;;;;0.55;0.55;;;;;;;16.84;70.55;101570.94;5041345;28;20036;-78
2022/07/01 00:53:48;;;;;;;0.55;0.55;;;;;;;16.82;70.23;101557.59;5039983;28;20476;-79
2022/07/01 00:56:15;;;;;;;0.00;0.00;;;;;;;16.81;70.36;101570.13;5044474;28;20492;-79
2022/07/01 00:58:41;;;;;;;0.65;0.65;;;;;;;16.78;70.44;101570.19;5044819;28;20480;-79
2022/07/01 01:01:07;;;;;;;0.63;0.63;;;;;;;16.80;70.32;101568.34;5041249;28;20029;-79
2022/07/01 01:03:33;;;;;;;0.20;0.20;;;;;;;16.74;70.38;101565.91;5045216;28;21498;-79
2022/07/01 01:05:59;;;;;;;0.10;0.10;;;;;;;16.78;70.13;101559.50;5042534;28;20021;-79
2022/07/01 01:08:26;;;;;;;0.10;0.10;;;;;;;16.71;69.56;101549.06;5043027;28;20099;-80
2022/07/01 01:10:54;;;;;;;1.02;1.02;;;;;;;16.71;70.21;101551.75;5041650;28;20029;-78
2022/07/01 01:13:20;;;;;;;0.00;0.00;;;;;;;16.70;70.05;101550.88;5040726;28;20033;-79
2022/07/01 01:15:46;;;;;;;0.13;0.13;;;;;;;16.64;70.34;101546.59;5042207;28;20514;-80
2022/07/01 01:18:12;;;;;;;0.10;0.10;;;;;;;16.64;69.99;101545.75;5043407;28;20033;-79
2022/07/01 01:20:38;;;;;;;0.38;0.38;;;;;;;16.61;70.21;101552.06;5040830;28;20040;-78
2022/07/01 01:23:05;;;;;;;0.15;0.15;;;;;;;16.61;70.06;101551.19;5043876;28;20037;-79
2022/07/01 01:25:33;;;;;;;1.15;1.05;;;;;;;16.57;70.49;101569.13;5041439;28;20113;-79
2022/07/01 01:28:00;;;;;;;0.40;0.40;;;;;;;16.56;69.93;101563.84;5044398;28;20033;-79
2022/07/01 01:30:27;;;;;;;0.30;0.30;;;;;;;16.49;70.24;101569.41;5044818;28;20029;-78
2022/07/01 01:32:53;;;;;;;0.40;0.40;;;;;;;16.52;70.65;101562.19;5038867;28;20128;-79
2022/07/01 01:35:20;;;;;;;0.95;0.93;;;;;;;16.48;70.28;101567.63;5048472;28;20029;-79
2022/07/01 01:37:46;;;;;;;1.65;1.10;;;;;;;16.50;70.16;101576.50;5042914;28;20040;-79
2022/07/01 01:40:14;;;;;;;0.45;0.45;;;;;;;16.44;70.18;101579.38;5042684;28;20025;-79
2022/07/01 01:42:41;;;;;;;0.50;0.50;;;;;;;16.46;70.73;101590.03;5038105;28;20035;-79
2022/07/01 01:45:08;;;;;;;0.35;0.35;;;;;;;16.37;71.07;101603.69;5044930;28;20116;-79
2022/07/01 01:47:34;;;;;;;2.17;1.30;;;;;;;16.37;70.59;101601.88;5043602;28;20347;-80
2022/07/01 01:50:00;;;;;;;0.10;0.10;;;;;;;16.47;70.76;101606.03;5046944;28;20029;-80
2022/07/01 01:52:26;;;;;;;2.17;0.98;;;;;;;16.48;70.63;101612.25;5040619;28;20043;-79
2022/07/01 01:54:53;;;;;;;0.20;0.20;;;;;;;16.43;70.84;101609.72;5045575;28;20052;-79
2022/07/01 01:57:19;;;;;;;0.70;0.70;;;;;;;16.43;70.95;101614.22;5040321;28;20033;-78
2022/07/01 01:59:45;;;;;;;1.00;0.47;;;;;;;16.42;70.91;101605.28;5041378;28;20035;-78
2022/07/01 02:02:11;;;;;;;0.43;0.43;;;;;;;16.43;70.54;101596.34;5036928;28;20472;-79
2022/07/01 02:04:37;;;;;;;0.10;0.10;;;;;;;16.45;70.30;101597.19;5044327;28;20040;-78
2022/07/01 02:07:04;;;;;;;0.08;0.08;;;;;;;16.44;70.30;101603.44;5041106;28;20106;-79
2022/07/01 02:09:30;;;;;;;0.17;0.17;;;;;;;16.42;70.56;101605.28;5043054;28;20037;-79
2022/07/01 02:11:57;;;;;;;0.32;0.32;;;;;;;16.43;70.50;101609.72;5040334;28;20448;-78
2022/07/01 02:14:23;;;;;;;4.03;0.57;;;;;;;16.41;70.76;101614.25;5048885;28;20241;-79
2022/07/01 02:16:49;;;;;;;0.45;0.45;;;;;;;16.40;70.45;101620.53;5043836;28;20095;-78
2022/07/01 02:19:15;;;;;;;0.20;0.20;;;;;;;16.40;70.69;101625.88;5044848;28;20059;-79
2022/07/01 02:21:41;;;;;;;2.17;1.10;;;;;;;16.42;70.59;101615.13;5045601;28;20040;-78
2022/07/01 02:24:07;;;;;;;0.10;0.10;;;;;;;16.40;70.72;101622.31;5044082;28;20111;-78
2022/07/01 02:26:34;;;;;;;0.82;0.82;;;;;;;16.41;70.61;101613.38;5044960;28;20025;-79
2022/07/01 02:29:00;;;;;;;0.10;0.10;;;;;;;16.42;70.28;101615.97;5044559;28;20033;-79
2022/07/01 02:31:26;;;;;;;0.10;0.10;;;;;;;16.42;70.24;101615.97;5044202;28;20112;-79
2022/07/01 02:33:52;;;;;;;0.35;0.35;;;;;;;16.42;70.35;101628.50;5047336;28;20028;-78
2022/07/01 02:36:19;;;;;;;0.25;0.25;;;;;;;16.40;70.52;101625.88;5047500;28;20563;-79
2022/07/01 02:38:45;;;;;;;0.90;0.90;;;;;;;16.41;70.41;101611.59;5045901;28;20044;-79
2022/07/01 02:41:11;;;;;;;0.10;0.10;;;;;;;16.41;70.43;101619.63;5044187;28;20440;-79
2022/07/01 02:43:37;;;;;;;0.20;0.20;;;;;;;16.38;70.88;101621.50;5047050;28;20029;-79
2022/07/01 02:46:03;;;;;;;0.47;0.47;;;;;;;16.40;70.79;101624.97;5046084;28;20024;-79
2022/07/01 02:48:29;;;;;;;0.63;0.63;;;;;;;16.41;70.49;101619.63;5041423;28;20550;-79
2022/07/01 02:50:55;;;;;;;0.10;0.10;;;;;;;16.42;70.53;101620.47;5042831;28;20186;-79
2022/07/01 02:53:22;;;;;;;0.47;0.47;;;;;;;16.42;70.75;101621.34;5044210;28;20527;-79
2022/07/01 02:55:48;;;;;;;0.30;0.30;;;;;;;16.44;70.72;101610.59;5048618;28;20061;-79
2022/07/01 02:58:14;;;;;;;0.15;0.15;;;;;;;16.42;70.78;101621.34;5048068;28;20037;-80
2022/07/01 03:00:40;;;;;;;0.00;0.00;;;;;;;16.42;70.73;101631.16;5052500;28;20028;-78
2022/07/01 03:03:06;;;;;;;1.55;0.35;;;;;;;16.41;70.51;101635.66;5056217;28;20025;-80
2022/07/01 03:05:32;;;;;;;0.55;0.55;;;;;;;16.39;70.48;101637.50;5050081;28;20107;-80
2022/07/01 03:07:59;;;;;;;2.60;0.52;;;;;;;16.38;70.31;101625.03;5049518;28;20040;-80
2022/07/01 03:10:25;;;;;;;0.10;0.10;;;;;;;16.33;70.53;101610.94;5048002;28;20493;-79
2022/07/01 03:12:51;;;;;;;0.10;0.10;;;;;;;16.35;70.28;101611.78;5047914;28;20052;-79
2022/07/01 03:15:17;;;;;;;0.10;0.10;;;;;;;16.27;70.77;101600.44;5051001;28;20048;-79
2022/07/01 03:17:45;;;;;;;0.57;0.55;;;;;;;16.27;70.55;101597.78;5054473;28;20092;-79
2022/07/01 03:20:14;;;;;;;1.95;1.08;;;;;;;16.27;70.38;101595.09;5050793;28;21175;-78
2022/07/01 03:22:41;;;;;;;0.30;0.30;;;;;;;16.24;70.45;101600.56;5050984;28;20056;-79
2022/07/01 03:25:08;;;;;;;0.10;0.10;;;;;;;16.22;70.39;101597.91;5049675;28;20029;-79
2022/07/01 03:27:35;;;;;;;0.10;0.10;;;;;;;16.22;70.49;101610.41;5048608;28;20514;-79
2022/07/01 03:30:03;;;;;;;0.40;0.40;;;;;;;16.24;70.59;101627.28;5050278;28;20453;-80
2022/07/01 03:32:29;;;;;;;0.10;0.10;;;;;;;16.20;70.91;101633.63;5046979;28;20280;-78
2022/07/01 03:34:56;;;;;;;1.48;1.38;;;;;;;16.22;70.60;101634.47;5050991;28;20037;-79
2022/07/01 03:37:22;;;;;;;0.28;0.28;;;;;;;16.14;70.97;101627.56;5049002;28;20032;-80
2022/07/01 03:39:49;;;;;;;1.55;1.42;;;;;;;16.19;70.85;101619.41;5045997;28;20468;-80
2022/07/01 03:42:16;;;;;;;0.63;0.57;;;;;;;16.20;70.74;101625.63;5045920;28;20025;-78
2022/07/01 03:44:44;;;;;;;0.68;0.68;;;;;;;16.22;70.32;101623.78;5051895;28;20033;-79
2022/07/01 03:47:10;;;;;;;0.30;0.30;;;;;;;16.20;70.75;101631.84;5050739;28;20598;-78
2022/07/01 03:49:37;;;;;;;0.05;0.05;;;;;;;16.19;70.90;101638.13;5049652;28;20044;-80
2022/07/01 03:52:07;;;;;;;0.20;0.20;;;;;;;16.18;70.83;101649.75;5049851;28;20029;-78
2022/07/01 03:54:37;;;;;;;0.93;0.93;;;;;;;16.17;70.58;101654.22;5048428;28;20064;-80
2022/07/01 03:57:07;;;;;;;0.22;0.22;;;;;;;16.21;70.66;101648.75;5052395;28;20029;-80
2022/07/01 03:59:37;;;;;;;0.40;0.40;;;;;;;16.25;70.44;101656.66;5050190;28;20397;-79
2022/07/01 04:02:04;;;;;;;0.10;0.10;;;;;;;16.21;70.60;101664.81;5050161;28;20021;-79
2022/07/01 04:04:31;;;;;;;2.33;0.65;;;;;;;16.17;70.90;101661.34;5046611;28;20056;-79
2022/07/01 04:06:59;;;;;;;0.43;0.43;;;;;;;16.20;70.78;101661.28;5051111;28;20043;-79
2022/07/01 04:09:27;;;;;;;0.20;0.20;;;;;;;16.19;70.87;101664.88;5046973;28;20036;-80
2022/07/01 04:11:54;;;;;;;0.85;0.85;;;;;;;16.15;70.97;101658.72;5047445;28;20558;-80
2022/07/01 04:14:20;;;;;;;0.10;0.10;;;;;;;16.16;71.07;101657.81;5047533;28;20528;-80
2022/07/01 04:16:47;;;;;;;0.15;0.15;;;;;;;16.14;70.96;101650.75;5050100;28;20037;-80
2022/07/01 04:19:15;;;;;;;0.52;0.52;;;;;;;16.16;70.75;101665.84;5052108;28;20033;-80
2022/07/01 04:24:28;;;;;;;0.43;0.43;;;;;;;16.18;70.88;101674.66;5048729;28;20036;-79
2022/07/01 04:26:54;;;;;;;0.65;0.65;;;;;;;16.23;71.00;101681.69;5047776;28;20026;-79
2022/07/01 04:29:21;;;;;;;0.15;0.15;;;;;;;16.22;71.30;101675.44;5048234;28;20041;-79
2022/07/01 04:31:47;;;;;;;0.10;0.10;;;;;;;16.30;71.03;101680.59;5048752;28;20062;-80
2022/07/01 04:34:13;;;;;;;1.67;0.85;;;;;;;16.38;70.74;101685.69;5043691;28;20482;-80
2022/07/01 04:36:40;;;;;;;0.25;0.25;;;;;;;16.33;70.78;101680.47;5044043;28;20021;-79
2022/07/01 04:39:07;;;;;;;0.35;0.35;;;;;;;16.37;70.95;101676.78;5048238;28;20500;-79
2022/07/01 04:42:05;;;;;;;0.47;0.47;;;;;;;16.41;70.92;101689.16;5046854;28;20542;-79
2022/07/01 04:44:20;;;;;;;0.10;0.10;;;;;;;16.47;70.95;101675.59;5050100;28;20036;-79
2022/07/01 04:46:46;;;;;;;0.93;0.25;;;;;;;16.53;70.94;101681.66;5050228;28;20036;-80
2022/07/01 04:49:12;;;;;;;0.10;0.10;;;;;;;16.57;71.00;101678.81;5048698;28;20044;-80
2022/07/01 04:51:38;;;;;;;0.10;0.10;;;;;;;16.60;70.90;101677.88;5042392;28;20086;-80
2022/07/01 04:54:06;;;;;;;0.57;0.57;;;;;;;16.67;70.85;101682.06;5048678;28;20032;-80
2022/07/01 04:56:33;;;;;;;0.10;0.10;;;;;;;16.63;71.15;101683.13;5049425;28;20028;-80
2022/07/01 04:59:00;;;;;;;0.15;0.15;;;;;;;16.75;71.14;101685.41;5047817;28;20029;-80
2022/07/01 05:01:28;;;;;;;0.50;0.50;;;;;;;16.81;70.69;101693.22;5046412;28;20033;-80
2022/07/01 05:03:55;;;;;;;0.45;0.45;;;;;;;16.75;70.56;101693.41;5051143;28;20070;-80
2022/07/01 05:06:21;;;;;;;0.15;0.15;;;;;;;16.80;70.41;101702.19;5051889;28;20032;-80
2022/07/01 05:08:47;;;;;;;0.45;0.45;;;;;;;16.63;70.26;101704.50;5051405;28;20037;-80
2022/07/01 05:11:13;;;;;;;0.15;0.15;;;;;;;16.71;70.03;101712.28;5044689;28;20503;-80
2022/07/01 05:13:40;;;;;;;0.00;0.00;;;;;;;16.67;70.11;101714.19;5046588;28;20056;-79
2022/07/01 05:16:08;;;;;;;0.00;0.00;;;;;;;16.70;70.06;101711.44;5047662;28;20496;-80
2022/07/01 05:24:09;;;;;;;0.10;0.10;;;;;;;16.59;70.15;101693.03;5048651;28;20119;-78
2022/07/01 05:26:36;;;;;;;0.10;0.10;;;;;;;16.72;69.69;101693.50;5048478;28;20033;-79
2022/07/01 05:29:02;;;;;;;0.10;0.10;;;;;;;16.76;69.88;101708.56;5046642;28;20100;-79
2022/07/01 05:31:28;;;;;;;0.45;0.45;;;;;;;16.76;70.30;101716.59;5048745;28;20029;-79
2022/07/01 05:33:54;;;;;;;0.00;0.00;;;;;;;16.79;69.94;101705.78;5048102;28;20112;-78
2022/07/01 05:36:20;;;;;;;0.10;0.10;;;;;;;16.79;69.60;101705.78;5049045;28;20075;-79
2022/07/01 05:38:46;;;;;;;0.45;0.45;;;;;;;16.82;69.73;101705.69;5046093;28;20065;-79
2022/07/01 05:41:13;;;;;;;0.32;0.32;;;;;;;16.82;69.53;101708.38;5044770;28;20080;-79
2022/07/01 05:43:39;;;;;;;0.10;0.10;;;;;;;16.94;69.81;101707.09;5047458;28;20041;-78
2022/07/01 05:46:05;;;;;;;0.38;0.38;;;;;;;16.99;69.84;101701.59;5045837;28;20025;-80
2022/07/01 05:48:31;;;;;;;0.10;0.10;;;;;;;17.09;69.57;101704.84;5051319;28;20048;-79
2022/07/01 05:50:57;;;;;;;0.10;0.10;;;;;;;17.21;69.50;101704.44;5054237;28;20078;-80
2022/07/01 05:53:23;;;;;;;0.10;0.10;;;;;;;17.11;69.07;101694.97;5054188;22;20045;-78
2022/07/01 05:55:50;;;;;;;0.82;0.60;;;;;;;17.25;69.05;101692.69;5035845;28;20049;-79
2022/07/01 05:58:16;;;;;;;0.10;0.10;;;;;;;17.40;68.52;101688.59;5037095;28;20116;-78
2022/07/01 06:00:43;;;;;;;0.10;0.10;;;;;;;17.48;68.36;101703.53;5036215;28;20173;-78
2022/07/01 06:03:10;;;;;;;0.10;0.10;;;;;;;17.49;67.78;101692.75;5037195;28;20055;-79
2022/07/01 06:05:36;;;;;;;0.10;0.10;;;;;;;17.63;68.01;101701.19;5036479;28;20033;-79
2022/07/01 06:08:04;;;;;;;1.20;0.60;;;;;;;17.60;67.59;101700.41;5033963;28;20045;-78
2022/07/01 06:10:30;;;;;;;0.10;0.10;;;;;;;17.53;67.22;101706.91;5035644;28;20047;-78
2022/07/01 06:12:56;;;;;;;0.10;0.10;;;;;;;17.51;67.56;101703.41;5035091;28;20541;-77
2022/07/01 06:15:22;;;;;;;0.03;0.03;;;;;;;17.54;67.56;101703.31;5035562;28;20433;-78
2022/07/01 06:17:49;;;;;;;0.17;0.17;;;;;;;17.49;67.49;101702.59;5036809;28;20497;-79
2022/07/01 06:20:15;;;;;;;0.10;0.10;;;;;;;17.53;67.19;101698.88;5035719;28;20036;-78
2022/07/01 06:22:42;;;;;;;0.13;0.13;;;;;;;17.42;67.47;101700.16;5037769;28;20111;-78
2022/07/01 06:25:08;;;;;;;0.10;0.10;;;;;;;17.49;66.90;101705.28;5038422;28;20025;-78
2022/07/01 06:27:43;;;;;;;2.05;1.95;;;;;;;17.54;67.29;101708.69;5036194;28;20029;-78
2022/07/01 06:30:10;;;;;;;0.17;0.17;;;;;;;17.44;67.38;101708.13;5037061;28;20143;-79
2022/07/01 06:32:37;;;;;;;0.10;0.10;;;;;;;17.55;67.59;101699.72;5033736;28;20052;-78
2022/07/01 06:35:04;;;;;;;0.08;0.08;;;;;;;17.50;67.77;101690.97;5037179;28;20041;-79
2022/07/01 06:37:33;;;;;;;0.10;0.10;;;;;;;17.42;67.62;101697.47;5038344;28;20041;-79
2022/07/01 06:40:00;;;;;;;1.08;1.08;;;;;;;17.50;67.41;101691.81;5037431;28;20029;-77
2022/07/01 06:42:26;;;;;;;0.10;0.10;;;;;;;17.59;67.28;101695.97;5038348;28;20029;-78
2022/07/01 06:44:52;;;;;;;0.32;0.32;;;;;;;17.51;67.06;101690.00;5034314;28;20029;-77
2022/07/01 06:47:19;;;;;;;3.70;0.98;;;;;;;17.49;67.27;101697.25;5032120;28;20022;-77
2022/07/01 06:49:45;;;;;;;1.10;1.10;;;;;;;17.62;66.99;101683.34;5032412;28;20047;-78
2022/07/01 06:52:11;;;;;;;0.10;0.10;;;;;;;17.65;67.09;101681.50;5034049;28;20025;-78
2022/07/01 06:54:37;;;;;;;0.80;0.80;;;;;;;17.73;66.90;101682.06;5036008;28;20091;-79
2022/07/01 06:57:05;;;;;;;0.08;0.08;;;;;;;17.80;66.86;101683.59;5038102;28;20022;-77
2022/07/01 06:59:31;;;;;;;0.15;0.15;;;;;;;17.82;66.41;101691.59;5038284;28;20026;-82
2022/07/01 07:01:57;;;;;;;1.75;0.88;;;;;;;17.85;66.00;101696.84;5037531;28;20025;-81
2022/07/01 07:04:24;;;;;;;0.10;0.10;;;;;;;17.95;65.76;101698.28;5032974;28;20034;-79
2022/07/01 07:06:50;;;;;;;0.10;0.10;;;;;;;17.88;65.29;101702.09;5037274;28;20033;-80
2022/07/01 07:09:16;;;;;;;1.15;0.65;;;;;;;18.01;65.81;101703.41;5039379;28;20037;-80
2022/07/01 07:11:42;;;;;;;0.00;0.00;;;;;;;18.05;65.37;101713.09;5036017;28;20037;-80
2022/07/01 07:14:08;;;;;;;0.10;0.10;;;;;;;18.27;64.52;101709.59;5034946;28;20033;-79
2022/07/01 07:16:34;;;;;;;0.10;0.10;;;;;;;18.40;64.08;101710.84;5036237;28;20056;-80
2022/07/01 07:19:03;;;;;;;0.10;0.10;;;;;;;18.34;62.97;101727.19;5034372;28;20128;-82
2022/07/01 07:21:29;;;;;;;0.60;0.60;;;;;;;18.40;63.15;101716.22;5034022;28;20025;-82
2022/07/01 07:23:56;;;;;;;0.05;0.05;;;;;;;18.61;63.11;101713.63;5032361;28;20029;-82
2022/07/01 07:26:22;;;;;;;0.10;0.10;;;;;;;18.71;62.63;101722.19;5040391;28;20052;-82
2022/07/01 07:28:50;;;;;;;0.70;0.30;;;;;;;19.00;62.47;101715.66;5037735;28;20092;-81
2022/07/01 07:31:16;;;;;;;0.10;0.10;;;;;;;19.17;61.29;101716.78;5032622;28;20507;-81
2022/07/01 07:33:42;;;;;;;0.10;0.10;;;;;;;19.13;61.10;101728.56;5036125;28;20409;-81
2022/07/01 07:36:08;;;;;;;2.53;1.08;;;;;;;19.29;61.24;101721.63;5016930;28;20030;-82
2022/07/01 07:38:38;;;;;;;0.00;0.00;;;;;;;19.53;61.05;101727.75;5034941;28;20021;-81
2022/07/01 07:41:04;;;;;;;0.20;0.20;;;;;;;19.53;59.98;101730.44;5033025;28;20033;-81
2022/07/01 07:43:31;;;;;;;0.10;0.10;;;;;;;19.46;59.29;101749.59;5026855;28;20034;-83
2022/07/01 07:45:57;;;;;;;0.17;0.17;;;;;;;19.44;59.05;101732.63;5028738;28;20264;-81
2022/07/01 07:48:23;;;;;;;0.10;0.10;;;;;;;19.59;59.17;101739.16;5032792;28;20088;-79
2022/07/01 07:50:49;;;;;;;0.10;0.10;;;;;;;19.61;58.84;101742.66;5031853;28;20025;-77
2022/07/01 07:53:15;;;;;;;0.10;0.10;;;;;;;19.62;58.62;101729.16;5034946;28;20087;-78
2022/07/01 07:55:41;;;;;;;0.10;0.10;;;;;;;19.73;58.65;101732.25;5032946;28;20034;-78
2022/07/01 07:58:08;;;;;;;0.00;0.00;;;;;;;19.71;58.83;101735.94;5032730;28;20041;-79
2022/07/01 08:00:34;;;;;;;0.10;0.10;;;;;;;19.58;58.80;101740.09;5031104;28;20040;-79
2022/07/01 08:03:00;;;;;;;0.10;0.10;;;;;;;19.61;59.08;101743.53;5031342;28;20151;-78
2022/07/01 08:05:26;;;;;;;0.10;0.10;;;;;;;19.48;58.25;101732.44;5033688;28;20048;-79
2022/07/01 08:07:52;;;;;;;0.10;0.10;;;;;;;19.56;57.35;101734.78;5034214;28;20034;-79
2022/07/01 08:10:18;;;;;;;0.20;0.20;;;;;;;19.60;55.85;101728.38;5033045;28;20037;-79
2022/07/01 08:12:44;;;;;;;0.00;0.00;;;;;;;19.70;56.54;101735.06;5032566;28;20395;-79
2022/07/01 08:15:11;;;;;;;0.00;0.00;;;;;;;19.80;56.92;101730.16;5030762;28;20035;-80
2022/07/01 08:17:37;;;;;;;0.30;0.30;;;;;;;19.80;56.91;101738.22;5032373;28;20658;-80
2022/07/01 08:20:03;;;;;;;0.05;0.05;;;;;;;19.95;57.11;101751.94;5030925;28;20052;-83
2022/07/01 08:22:30;;;;;;;0.10;0.10;;;;;;;20.17;56.48;101730.31;5028133;28;20481;-80
2022/07/01 08:24:56;;;;;;;0.40;0.40;;;;;;;20.28;56.47;101745.97;5039121;28;20036;-80
2022/07/01 08:27:22;;;;;;;0.10;0.10;;;;;;;20.52;55.37;101749.31;5038234;28;20037;-79
2022/07/01 08:29:48;;;;;;;0.00;0.00;;;;;;;20.44;53.01;101752.38;5037575;28;20035;-79
2022/07/01 08:32:14;;;;;;;0.20;0.20;;;;;;;20.59;53.71;101758.84;5035502;28;20033;-80
2022/07/01 08:34:41;;;;;;;0.98;0.30;;;;;;;20.65;54.77;101769.34;5035933;28;20025;-80
2022/07/01 08:37:07;;;;;;;0.08;0.08;;;;;;;20.47;54.01;101765.72;5035984;28;20109;-79
2022/07/01 08:39:33;;;;;;;0.10;0.10;;;;;;;20.43;53.84;101774.00;5035190;28;20037;-82
2022/07/01 08:41:59;;;;;;;0.10;0.10;;;;;;;20.49;54.58;101779.09;5034067;28;20033;-80
2022/07/01 08:44:26;;;;;;;0.10;0.10;;;;;;;20.52;53.90;101785.22;5035672;28;20436;-82
2022/07/01 08:46:52;;;;;;;0.03;0.03;;;;;;;20.51;53.88;101782.56;5036042;28;20029;-84
2022/07/01 08:49:18;;;;;;;0.10;0.10;;;;;;;20.69;52.62;101779.00;5034369;28;20067;-84
2022/07/01 08:51:44;;;;;;;0.10;0.10;;;;;;;20.96;52.14;101784.06;5035661;28;20051;-84
2022/07/01 08:54:11;;;;;;;0.00;0.00;;;;;;;21.18;51.86;101782.97;5025743;28;20568;-82
2022/07/01 08:56:45;;;;;;;0.20;0.20;;;;;;;21.27;51.10;101793.31;5016279;28;20080;-83
2022/07/01 08:59:20;;;;;;;0.10;0.10;;;;;;;21.32;50.01;101791.25;5036900;28;20029;-83
2022/07/01 09:01:53;;;;;;;0.10;0.10;;;;;;;21.29;50.58;101788.69;5035920;28;20208;-83
2022/07/01 09:04:20;;;;;;;3.35;0.82;;;;;;;21.38;51.17;101795.44;5036990;28;20036;-83
2022/07/01 09:06:47;;;;;;;0.10;0.10;;;;;;;21.56;51.15;101788.28;5038688;28;20067;-83
2022/07/01 09:09:22;;;;;;;1.38;1.27;;;;;;;21.62;49.93;101793.38;5038760;28;20088;-82
2022/07/01 09:11:53;;;;;;;0.10;0.10;;;;;;;21.60;50.32;101797.97;5038783;28;20033;-83
2022/07/01 09:14:22;;;;;;;0.15;0.15;;;;;;;21.57;50.67;101795.44;5038226;28;20073;-82
2022/07/01 09:16:51;;;;;;;0.40;0.40;;;;;;;21.48;49.59;101798.56;5038765;28;20045;-84
2022/07/01 09:19:20;;;;;;;0.10;0.10;;;;;;;21.46;49.63;101811.25;5038974;28;20493;-82
2022/07/01 09:21:53;;;;;;;0.10;0.10;;;;;;;21.21;47.03;101804.41;5038210;28;20025;-84
2022/07/01 09:29:41;;;;;;;0.08;0.08;;;;;;;20.98;48.63;101801.00;5095792;27;20363;-84
2022/07/01 09:32:10;;;;;;;0.00;0.00;;;;;;;20.90;48.23;101808.59;5093977;28;20031;-82
2022/07/01 09:34:48;;;;;;;0.10;0.10;;;;;;;21.18;48.74;101809.94;5095162;28;20028;-84
2022/07/01 09:37:16;;;;;;;1.48;1.38;;;;;;;21.31;48.80;101805.69;5095291;28;20028;-83
2022/07/01 09:39:52;;;;;;;0.15;0.15;;;;;;;21.38;46.62;101810.75;5095825;28;20024;-84
2022/07/01 09:42:19;;;;;;;0.95;0.95;;;;;;;21.52;46.19;101802.88;5094902;28;20028;-83
2022/07/01 09:45:07;;;;;;;0.10;0.10;;;;;;;21.87;45.81;101802.88;5095575;28;20020;-84
2022/07/01 09:47:36;;;;;;;0.20;0.20;;;;;;;21.79;44.26;101791.63;5095417;28;20108;-84
2022/07/01 09:50:05;;;;;;;0.25;0.17;;;;;;;21.85;44.77;101793.13;5095421;28;20042;-85
2022/07/01 09:52:32;;;;;;;0.10;0.10;;;;;;;21.96;45.38;101796.13;5094194;28;20032;-84
2022/07/01 09:54:58;;;;;;;0.10;0.10;;;;;;;22.02;44.03;101794.91;5095144;28;20488;-84
2022/07/01 09:57:24;;;;;;;0.10;0.10;;;;;;;22.21;43.88;101809.19;5095760;28;20078;-84
2022/07/01 09:59:51;;;;;;;0.10;0.10;;;;;;;22.46;44.96;101795.22;5097662;28;20407;-83
2022/07/01 10:02:19;;;;;;;0.10;0.10;;;;;;;22.69;43.20;101801.22;5095526;28;20506;-82
2022/07/01 10:04:52;;;;;;;0.10;0.10;;;;;;;22.99;44.94;101813.03;5096146;28;20042;-84
2022/07/01 10:10:23;;;;;;;0.10;0.10;;;;;;;23.05;43.32;101816.28;5093361;27;20779;-80
2022/07/01 10:12:52;;;;;;;;;;;;;;;23.36;41.92;101816.38;5092682;28;20058;-78
2022/07/01 10:15:20;;;;;;;0.40;0.40;;;;;;;23.17;42.88;101825.53;5094005;28;20378;-79
2022/07/01 10:17:49;;;;;;;0.22;0.22;;;;;;;23.21;43.37;101818.13;5093190;28;20368;-79
2022/07/01 10:20:19;;;;;;;0.10;0.10;;;;;;;23.05;41.56;101820.81;5093552;28;20028;-79
2022/07/01 10:22:46;;;;;;;0.10;0.10;;;;;;;23.12;42.46;101826.75;5092715;28;20099;-81
2022/07/01 10:25:34;;;;;;;0.25;0.25;;;;;;;23.23;42.57;101838.69;5093659;28;20029;-79
2022/07/01 10:31:11;;;;;;;0.10;0.10;;;;;;;23.43;42.53;101844.78;5120769;27;1185931;-80
2022/07/01 10:33:58;;;;;;;0.40;0.40;;;;;;;23.46;41.84;101833.78;5113925;28;20068;-80
2022/07/01 10:36:34;;;;;;;0.10;0.10;;;;;;;23.71;41.88;101840.44;5113892;28;20393;-80
2022/07/01 10:44:15;;;;;;;0.30;0.30;;;;;;;23.33;39.89;101838.16;5093908;27;20413;-79
2022/07/01 10:46:45;;;;;;;0.10;0.10;;;;;;;23.48;39.85;101837.28;5092771;28;20033;-80
2022/07/01 10:49:14;;;;;;;0.10;0.10;;;;;;;23.54;39.83;101828.81;5093383;28;20031;-79
2022/07/01 11:02:39;;;;;;;0.10;0.10;;;;;;;23.26;39.80;101843.94;5075937;28;20387;-85
2022/07/01 11:05:10;;;;;;;0.77;0.77;;;;;;;23.32;39.11;101841.84;5075075;28;20039;-83
2022/07/01 11:07:42;;;;;;;0.10;0.10;;;;;;;23.32;39.75;101833.75;5075426;28;20028;-83
2022/07/01 11:10:10;;;;;;;;;;;;;;;23.55;40.33;101835.06;5076359;28;20033;-82
2022/07/01 11:12:36;;;;;;;0.10;0.10;;;;;;;23.51;40.14;101837.09;5075914;28;19913;-83
2022/07/01 11:15:05;;;;;;;0.10;0.10;;;;;;;23.73;39.87;101831.25;5094158;28;20058;-83
2022/07/01 11:17:32;;;;;;;0.10;0.10;;;;;;;23.93;40.28;101821.09;5072920;28;20055;-82
2022/07/01 11:20:02;;;;;;;0.10;0.10;;;;;;;24.02;39.54;101819.66;5073454;28;20029;-83
2022/07/01 11:22:32;;;;;;;0.10;0.10;;;;;;;24.14;38.39;101818.91;5071202;28;20595;-83
2022/07/01 11:25:00;;;;;;;0.10;0.10;;;;;;;24.16;37.38;101832.34;5082289;28;20027;-88
2022/07/01 11:27:29;;;;;;;0.10;0.10;;;;;;;23.99;36.47;101830.66;5080386;28;20056;-83
2022/07/01 11:29:58;;;;;;;0.10;0.10;;;;;;;23.86;37.13;101831.41;5072049;28;20078;-82
2022/07/01 11:32:29;;;;;;;0.10;0.10;;;;;;;23.87;37.06;101843.97;5081224;28;20027;-83
2022/07/01 11:34:56;;;;;;;0.20;0.20;;;;;;;23.69;36.50;101828.81;5092866;28;20059;-83
2022/07/01 11:40:14;;;;;;;0.10;0.10;;;;;;;23.34;37.55;101839.91;5065348;28;20032;-83
2022/07/01 11:42:41;;;;;;;0.10;0.10;;;;;;;23.38;37.95;101844.19;5060608;28;20047;-81
2022/07/01 11:45:07;;;;;;;0.03;0.03;;;;;;;23.35;38.57;101841.66;5056456;28;20032;-82
2022/07/01 11:47:34;;;;;;;0.10;0.10;;;;;;;23.30;39.64;101835.66;5052384;28;20044;-82
2022/07/01 11:50:01;;;;;;;0.10;0.10;;;;;;;22.99;39.35;101842.78;5051782;28;20067;-81
2022/07/01 11:52:27;;;;;;;0.10;0.10;;;;;;;22.86;39.77;101843.47;5063595;22;20374;-80
2022/07/01 11:54:57;;;;;;;0.10;0.10;;;;;;;22.70;39.86;101856.09;5029105;28;20041;-80
2022/07/01 11:57:27;;;;;;;1.35;1.25;;;;;;;22.49;40.26;101859.00;5029313;28;20499;-78
2022/07/01 11:59:55;;;;;;;0.10;0.10;;;;;;;22.19;41.64;101883.94;5028545;28;20083;-77
2022/07/01 12:02:22;;;;;;;0.10;0.10;;;;;;;22.12;43.55;101877.16;5026046;28;20099;-78
2022/07/01 12:04:50;;;;;;;0.10;0.10;;;;;;;21.80;44.62;101877.00;5028704;28;20108;-77